sensor_id;sensor_type;location;lat;lon;timestamp;pressure;altitude;pressure_sealevel;temperature;humidity
40920;BME280;26652;50.280;19.026;2023-05-22T00:01:25;98516.16;;;16.19;57.92
40920;BME280;26652;50.280;19.026;2023-05-22T00:03:27;98510.81;;;16.21;57.98
40920;BME280;26652;50.280;19.026;2023-05-22T00:05:29;98502.38;;;16.14;57.47
40920;BME280;26652;50.280;19.026;2023-05-22T00:07:29;98509.88;;;16.15;57.47
40920;BME280;26652;50.280;19.026;2023-05-22T00:09:30;98515.94;;;16.21;57.68
40920;BME280;26652;50.280;19.026;2023-05-22T00:11:31;98511.06;;;16.13;57.65
40920;BME280;26652;50.280;19.026;2023-05-22T00:13:34;98505.31;;;16.17;57.60
40920;BME280;26652;50.280;19.026;2023-05-22T00:15:34;98493.16;;;16.06;57.56
40920;BME280;26652;50.280;19.026;2023-05-22T00:17:36;98504.56;;;16.10;57.41
40920;BME280;26652;50.280;19.026;2023-05-22T00:19:36;98504.56;;;16.10;57.35
40920;BME280;26652;50.280;19.026;2023-05-22T00:21:38;98502.06;;;16.03;57.19
40920;BME280;26652;50.280;19.026;2023-05-22T00:23:38;98524.28;;;16.16;56.75
40920;BME280;26652;50.280;19.026;2023-05-22T00:25:41;98503.16;;;16.14;57.06
40920;BME280;26652;50.280;19.026;2023-05-22T00:27:41;98492.63;;;15.97;56.85
40920;BME280;26652;50.280;19.026;2023-05-22T00:29:42;98500.34;;;15.97;56.70
40920;BME280;26652;50.280;19.026;2023-05-22T00:31:43;98498.97;;;15.95;57.04
40920;BME280;26652;50.280;19.026;2023-05-22T00:33:44;98487.91;;;15.94;56.68
40920;BME280;26652;50.280;19.026;2023-05-22T00:35:44;98491.63;;;15.98;56.79
40920;BME280;26652;50.280;19.026;2023-05-22T00:37:45;98486.75;;;15.90;56.52
40920;BME280;26652;50.280;19.026;2023-05-22T00:39:47;98482.22;;;15.92;56.58
40920;BME280;26652;50.280;19.026;2023-05-22T00:41:48;98497.41;;;15.94;56.80
40920;BME280;26652;50.280;19.026;2023-05-22T00:43:49;98480.69;;;15.85;57.09
40920;BME280;26652;50.280;19.026;2023-05-22T00:45:50;98476.97;;;15.81;57.01
40920;BME280;26652;50.280;19.026;2023-05-22T00:47:53;98483.47;;;15.83;57.08
40920;BME280;26652;50.280;19.026;2023-05-22T00:49:54;98487.41;;;15.86;57.71
40920;BME280;26652;50.280;19.026;2023-05-22T00:51:55;98491.38;;;15.82;57.34
40920;BME280;26652;50.280;19.026;2023-05-22T00:53:56;98478.84;;;15.67;57.70
40920;BME280;26652;50.280;19.026;2023-05-22T00:55:57;98482.53;;;15.78;58.03
40920;BME280;26652;50.280;19.026;2023-05-22T00:58:01;98492.94;;;15.83;58.19
40920;BME280;26652;50.280;19.026;2023-05-22T01:00:10;98487.25;;;15.81;58.57
40920;BME280;26652;50.280;19.026;2023-05-22T01:02:13;98483.72;;;15.75;58.19
40920;BME280;26652;50.280;19.026;2023-05-22T01:04:17;98477.28;;;15.66;58.70
40920;BME280;26652;50.280;19.026;2023-05-22T01:06:18;98482.00;;;15.69;58.13
40920;BME280;26652;50.280;19.026;2023-05-22T01:08:20;98486.91;;;15.70;59.14
40920;BME280;26652;50.280;19.026;2023-05-22T01:10:22;98481.41;;;15.67;60.01
40920;BME280;26652;50.280;19.026;2023-05-22T01:14:42;98476.84;;;15.44;60.76
40920;BME280;26652;50.280;19.026;2023-05-22T01:21:46;98485.53;;;15.43;58.60
40920;BME280;26652;50.280;19.026;2023-05-22T01:29:14;98465.56;;;15.14;58.44
40920;BME280;26652;50.280;19.026;2023-05-22T01:31:24;98474.00;;;15.21;57.96
40920;BME280;26652;50.280;19.026;2023-05-22T01:33:31;98464.56;;;15.15;57.68
40920;BME280;26652;50.280;19.026;2023-05-22T01:35:37;98463.00;;;15.14;57.84
40920;BME280;26652;50.280;19.026;2023-05-22T01:37:41;98470.47;;;15.15;58.09
40920;BME280;26652;50.280;19.026;2023-05-22T01:39:42;98463.00;;;15.14;59.19
40920;BME280;26652;50.280;19.026;2023-05-22T01:41:44;98451.59;;;15.10;59.61
40920;BME280;26652;50.280;19.026;2023-05-22T01:43:45;98471.47;;;15.14;60.16
40920;BME280;26652;50.280;19.026;2023-05-22T01:45:46;98463.84;;;15.01;60.29
40920;BME280;26652;50.280;19.026;2023-05-22T01:47:47;98470.31;;;15.10;60.11
40920;BME280;26652;50.280;19.026;2023-05-22T01:49:48;98462.09;;;14.95;60.62
40920;BME280;26652;50.280;19.026;2023-05-22T01:51:56;98468.59;;;14.97;60.43
40920;BME280;26652;50.280;19.026;2023-05-22T01:54:00;98480.81;;;15.02;60.36
40920;BME280;26652;50.280;19.026;2023-05-22T01:56:09;98483.56;;;15.00;61.06
40920;BME280;26652;50.280;19.026;2023-05-22T01:58:28;98466.06;;;14.91;61.39
40920;BME280;26652;50.280;19.026;2023-05-22T02:00:31;98469.00;;;14.94;61.84
40920;BME280;26652;50.280;19.026;2023-05-22T02:02:34;98460.19;;;14.84;61.63
40920;BME280;26652;50.280;19.026;2023-05-22T02:04:41;98460.75;;;14.86;62.08
40920;BME280;26652;50.280;19.026;2023-05-22T02:06:44;98463.13;;;14.87;62.53
40920;BME280;26652;50.280;19.026;2023-05-22T02:08:45;98459.63;;;14.75;62.63
40920;BME280;26652;50.280;19.026;2023-05-22T02:10:51;98460.66;;;14.61;63.01
40920;BME280;26652;50.280;19.026;2023-05-22T02:12:54;98460.66;;;14.61;65.21
40920;BME280;26652;50.280;19.026;2023-05-22T02:14:55;98451.84;;;14.37;64.36
40920;BME280;26652;50.280;19.026;2023-05-22T02:16:56;98467.97;;;14.57;62.83
40920;BME280;26652;50.280;19.026;2023-05-22T02:19:00;98472.69;;;14.60;63.14
40920;BME280;26652;50.280;19.026;2023-05-22T02:21:05;98453.03;;;14.48;63.70
40920;BME280;26652;50.280;19.026;2023-05-22T02:23:08;98455.81;;;14.46;63.45
40920;BME280;26652;50.280;19.026;2023-05-22T02:25:10;98449.13;;;14.45;63.20
40920;BME280;26652;50.280;19.026;2023-05-22T02:27:14;98462.84;;;14.57;63.81
40920;BME280;26652;50.280;19.026;2023-05-22T02:29:16;98458.56;;;14.51;62.93
40920;BME280;26652;50.280;19.026;2023-05-22T02:31:17;98452.84;;;14.49;63.42
40920;BME280;26652;50.280;19.026;2023-05-22T02:33:17;98446.56;;;14.45;63.13
40920;BME280;26652;50.280;19.026;2023-05-22T02:35:18;98466.19;;;14.58;63.58
40920;BME280;26652;50.280;19.026;2023-05-22T02:37:19;98443.00;;;14.39;64.08
40920;BME280;26652;50.280;19.026;2023-05-22T02:39:20;98449.13;;;14.32;63.90
40920;BME280;26652;50.280;19.026;2023-05-22T02:41:20;98451.28;;;14.35;63.99
40920;BME280;26652;50.280;19.026;2023-05-22T02:43:21;98443.59;;;14.28;64.02
40920;BME280;26652;50.280;19.026;2023-05-22T02:45:22;98452.69;;;14.24;64.31
40920;BME280;26652;50.280;19.026;2023-05-22T02:47:23;98454.84;;;14.21;64.65
40920;BME280;26652;50.280;19.026;2023-05-22T02:49:23;98447.19;;;14.14;65.13
40920;BME280;26652;50.280;19.026;2023-05-22T02:51:24;98449.16;;;14.12;65.11
40920;BME280;26652;50.280;19.026;2023-05-22T02:53:25;98436.56;;;14.04;64.92
40920;BME280;26652;50.280;19.026;2023-05-22T02:55:26;98459.19;;;14.07;64.42
40920;BME280;26652;50.280;19.026;2023-05-22T02:57:27;98451.91;;;14.11;64.55
40920;BME280;26652;50.280;19.026;2023-05-22T02:59:27;98455.06;;;14.13;64.82
40920;BME280;26652;50.280;19.026;2023-05-22T03:01:28;98451.72;;;13.99;65.74
40920;BME280;26652;50.280;19.026;2023-05-22T03:03:30;98440.50;;;13.93;66.18
40920;BME280;26652;50.280;19.026;2023-05-22T03:05:30;98449.38;;;13.97;66.49
40920;BME280;26652;50.280;19.026;2023-05-22T03:07:32;98446.03;;;13.90;66.09
40920;BME280;26652;50.280;19.026;2023-05-22T03:09:34;98463.13;;;14.03;65.85
40920;BME280;26652;50.280;19.026;2023-05-22T03:11:35;98441.50;;;13.86;66.16
40920;BME280;26652;50.280;19.026;2023-05-22T03:13:36;98452.53;;;13.86;66.32
40920;BME280;26652;50.280;19.026;2023-05-22T03:15:37;98446.22;;;13.75;67.25
40920;BME280;26652;50.280;19.026;2023-05-22T03:17:37;98451.53;;;13.74;66.50
40920;BME280;26652;50.280;19.026;2023-05-22T03:19:38;98446.03;;;13.77;65.85
40920;BME280;26652;50.280;19.026;2023-05-22T03:21:39;98448.38;;;13.85;66.62
40920;BME280;26652;50.280;19.026;2023-05-22T03:23:40;98449.97;;;13.93;65.48
40920;BME280;26652;50.280;19.026;2023-05-22T03:25:40;98455.84;;;14.00;65.02
40920;BME280;26652;50.280;19.026;2023-05-22T03:27:41;98444.25;;;13.91;65.66
40920;BME280;26652;50.280;19.026;2023-05-22T03:29:42;98446.41;;;13.94;65.50
40920;BME280;26652;50.280;19.026;2023-05-22T03:31:43;98441.09;;;13.95;65.80
40920;BME280;26652;50.280;19.026;2023-05-22T03:33:44;98434.41;;;14.01;65.50
40920;BME280;26652;50.280;19.026;2023-05-22T03:35:45;98440.28;;;14.08;66.02
40920;BME280;26652;50.280;19.026;2023-05-22T03:37:45;98447.75;;;14.16;66.06
40920;BME280;26652;50.280;19.026;2023-05-22T03:39:46;98433.78;;;14.12;64.53
40920;BME280;26652;50.280;19.026;2023-05-22T03:41:47;98438.50;;;14.22;65.10
40920;BME280;26652;50.280;19.026;2023-05-22T03:43:48;98428.47;;;14.20;66.18
40920;BME280;26652;50.280;19.026;2023-05-22T03:45:48;98460.72;;;14.34;65.03
40920;BME280;26652;50.280;19.026;2023-05-22T03:47:50;98446.97;;;14.22;64.86
40920;BME280;26652;50.280;19.026;2023-05-22T03:49:51;98465.66;;;14.43;64.08
40920;BME280;26652;50.280;19.026;2023-05-22T03:51:51;98446.53;;;14.38;65.04
40920;BME280;26652;50.280;19.026;2023-05-22T03:53:52;98442.22;;;14.26;65.93
40920;BME280;26652;50.280;19.026;2023-05-22T03:55:53;98467.41;;;14.55;65.34
40920;BME280;26652;50.280;19.026;2023-05-22T03:57:54;98451.28;;;14.48;65.03
40920;BME280;26652;50.280;19.026;2023-05-22T03:59:55;98465.00;;;14.60;65.25
40920;BME280;26652;50.280;19.026;2023-05-22T04:01:55;98473.28;;;14.62;67.79
40920;BME280;26652;50.280;19.026;2023-05-22T04:03:57;98469.84;;;14.82;65.66
40920;BME280;26652;50.280;19.026;2023-05-22T04:05:58;98462.78;;;14.77;64.38
40920;BME280;26652;50.280;19.026;2023-05-22T04:07:59;98469.00;;;14.94;63.93
40920;BME280;26652;50.280;19.026;2023-05-22T04:09:59;98473.09;;;15.09;64.12
40920;BME280;26652;50.280;19.026;2023-05-22T04:12:01;98468.56;;;15.04;63.79
40920;BME280;26652;50.280;19.026;2023-05-22T04:14:02;98469.59;;;14.96;64.70
40920;BME280;26652;50.280;19.026;2023-05-22T04:16:03;98466.22;;;15.02;64.00
40920;BME280;26652;50.280;19.026;2023-05-22T04:18:04;98466.72;;;15.18;63.78
40920;BME280;26652;50.280;19.026;2023-05-22T04:20:06;98448.41;;;15.14;64.12
40920;BME280;26652;50.280;19.026;2023-05-22T04:22:07;98464.69;;;15.26;62.51
40920;BME280;26652;50.280;19.026;2023-05-22T04:24:08;98470.38;;;15.35;62.30
40920;BME280;26652;50.280;19.026;2023-05-22T04:26:10;98449.16;;;15.21;63.28
40920;BME280;26652;50.280;19.026;2023-05-22T04:28:11;98456.34;;;15.37;61.62
40920;BME280;26652;50.280;19.026;2023-05-22T04:30:12;98447.41;;;15.47;60.13
40920;BME280;26652;50.280;19.026;2023-05-22T04:32:13;98444.22;;;15.51;60.47
40920;BME280;26652;50.280;19.026;2023-05-22T04:34:17;98456.53;;;15.67;60.23
40920;BME280;26652;50.280;19.026;2023-05-22T04:36:18;98467.38;;;15.94;60.07
40920;BME280;26652;50.280;19.026;2023-05-22T04:38:21;98449.25;;;15.89;61.16
40920;BME280;26652;50.280;19.026;2023-05-22T04:40:25;98447.16;;;16.05;59.46
40920;BME280;26652;50.280;19.026;2023-05-22T04:42:26;98448.38;;;16.20;59.96
40920;BME280;26652;50.280;19.026;2023-05-22T04:44:27;98446.31;;;16.65;58.68
40920;BME280;26652;50.280;19.026;2023-05-22T04:46:29;98452.03;;;17.27;58.02
40920;BME280;26652;50.280;19.026;2023-05-22T04:48:31;98448.31;;;18.35;53.43
40920;BME280;26652;50.280;19.026;2023-05-22T04:50:32;98462.28;;;19.65;53.67
40920;BME280;26652;50.280;19.026;2023-05-22T04:52:33;98473.78;;;20.29;51.14
40920;BME280;26652;50.280;19.026;2023-05-22T04:54:35;98471.44;;;20.93;47.89
40920;BME280;26652;50.280;19.026;2023-05-22T04:56:36;98477.91;;;21.44;46.96
40920;BME280;26652;50.280;19.026;2023-05-22T04:58:36;98465.91;;;21.65;43.92
40920;BME280;26652;50.280;19.026;2023-05-22T05:00:37;98477.06;;;21.71;43.21
40920;BME280;26652;50.280;19.026;2023-05-22T05:02:38;98470.13;;;21.44;44.84
40920;BME280;26652;50.280;19.026;2023-05-22T05:04:39;98465.88;;;20.79;45.55
40920;BME280;26652;50.280;19.026;2023-05-22T05:06:40;98463.06;;;20.20;48.21
40920;BME280;26652;50.280;19.026;2023-05-22T05:08:42;98471.50;;;19.77;47.95
40920;BME280;26652;50.280;19.026;2023-05-22T05:10:43;98475.94;;;19.48;48.87
40920;BME280;26652;50.280;19.026;2023-05-22T05:12:44;98460.41;;;19.15;48.81
40920;BME280;26652;50.280;19.026;2023-05-22T05:14:45;98465.28;;;19.00;49.55
40920;BME280;26652;50.280;19.026;2023-05-22T05:16:46;98466.22;;;18.65;49.23
40920;BME280;26652;50.280;19.026;2023-05-22T05:18:46;98455.00;;;18.48;49.80
40920;BME280;26652;50.280;19.026;2023-05-22T05:20:47;98454.56;;;18.51;50.70
40920;BME280;26652;50.280;19.026;2023-05-22T05:22:48;98460.13;;;18.59;51.59
40920;BME280;26652;50.280;19.026;2023-05-22T05:24:49;98467.16;;;18.24;50.54
40920;BME280;26652;50.280;19.026;2023-05-22T05:26:50;98460.19;;;17.78;50.46
40920;BME280;26652;50.280;19.026;2023-05-22T05:28:51;98465.81;;;17.98;51.32
40920;BME280;26652;50.280;19.026;2023-05-22T05:30:52;98477.22;;;18.02;50.57
40920;BME280;26652;50.280;19.026;2023-05-22T05:32:55;98468.38;;;17.75;50.58
40920;BME280;26652;50.280;19.026;2023-05-22T05:34:56;98473.19;;;17.83;51.34
40920;BME280;26652;50.280;19.026;2023-05-22T05:36:59;98477.31;;;17.60;51.44
40920;BME280;26652;50.280;19.026;2023-05-22T05:38:59;98465.31;;;17.54;51.90
40920;BME280;26652;50.280;19.026;2023-05-22T05:41:00;98454.22;;;17.54;51.59
40920;BME280;26652;50.280;19.026;2023-05-22T05:43:01;98453.28;;;17.67;52.12
40920;BME280;26652;50.280;19.026;2023-05-22T05:45:03;98467.38;;;17.87;52.32
40920;BME280;26652;50.280;19.026;2023-05-22T05:47:04;98469.38;;;17.85;51.42
40920;BME280;26652;50.280;19.026;2023-05-22T05:49:09;98465.66;;;17.70;52.22
40920;BME280;26652;50.280;19.026;2023-05-22T05:51:10;98455.25;;;17.64;51.93
40920;BME280;26652;50.280;19.026;2023-05-22T05:53:11;98463.09;;;17.70;52.13
40920;BME280;26652;50.280;19.026;2023-05-22T05:55:12;98468.28;;;17.93;51.79
40920;BME280;26652;50.280;19.026;2023-05-22T05:57:13;98456.28;;;17.75;52.03
40920;BME280;26652;50.280;19.026;2023-05-22T05:59:14;98448.44;;;17.82;52.27
40920;BME280;26652;50.280;19.026;2023-05-22T06:01:15;98458.63;;;17.88;51.91
40920;BME280;26652;50.280;19.026;2023-05-22T06:03:15;98448.44;;;17.70;52.32
40920;BME280;26652;50.280;19.026;2023-05-22T06:05:17;98466.25;;;17.95;52.50
40920;BME280;26652;50.280;19.026;2023-05-22T06:07:18;98453.03;;;17.91;51.79
40920;BME280;26652;50.280;19.026;2023-05-22T06:09:19;98458.09;;;18.10;51.38
40920;BME280;26652;50.280;19.026;2023-05-22T06:11:20;98449.22;;;18.06;51.55
40920;BME280;26652;50.280;19.026;2023-05-22T06:13:21;98442.63;;;18.10;50.79
40920;BME280;26652;50.280;19.026;2023-05-22T06:15:22;98445.41;;;18.20;51.23
40920;BME280;26652;50.280;19.026;2023-05-22T06:17:23;98448.31;;;18.23;50.25
40920;BME280;26652;50.280;19.026;2023-05-22T06:19:23;98451.91;;;18.34;50.60
40920;BME280;26652;50.280;19.026;2023-05-22T06:21:24;98456.47;;;18.44;51.10
40920;BME280;26652;50.280;19.026;2023-05-22T06:23:25;98446.03;;;18.50;50.29
40920;BME280;26652;50.280;19.026;2023-05-22T06:25:26;98445.34;;;18.67;50.26
40920;BME280;26652;50.280;19.026;2023-05-22T06:27:29;98452.78;;;18.80;49.02
40920;BME280;26652;50.280;19.026;2023-05-22T06:29:30;98448.09;;;18.77;48.59
40920;BME280;26652;50.280;19.026;2023-05-22T06:31:31;98452.53;;;18.93;48.01
40920;BME280;26652;50.280;19.026;2023-05-22T06:33:35;98453.31;;;18.93;48.60
40920;BME280;26652;50.280;19.026;2023-05-22T06:35:36;98455.88;;;18.93;47.63
40920;BME280;26652;50.280;19.026;2023-05-22T06:37:37;98455.97;;;18.99;47.76
40920;BME280;26652;50.280;19.026;2023-05-22T06:39:38;98461.91;;;18.99;46.93
40920;BME280;26652;50.280;19.026;2023-05-22T06:41:39;98452.94;;;19.02;47.39
40920;BME280;26652;50.280;19.026;2023-05-22T06:43:40;98452.19;;;19.18;46.45
40920;BME280;26652;50.280;19.026;2023-05-22T06:45:41;98448.53;;;19.31;46.66
40920;BME280;26652;50.280;19.026;2023-05-22T06:47:41;98452.84;;;19.42;46.00
40920;BME280;26652;50.280;19.026;2023-05-22T06:49:42;98433.38;;;19.51;46.56
40920;BME280;26652;50.280;19.026;2023-05-22T06:51:44;98453.41;;;19.77;46.54
40920;BME280;26652;50.280;19.026;2023-05-22T06:53:45;98442.41;;;19.65;45.42
40920;BME280;26652;50.280;19.026;2023-05-22T06:55:46;98440.44;;;19.72;46.42
40920;BME280;26652;50.280;19.026;2023-05-22T06:57:47;98446.66;;;19.93;45.71
40920;BME280;26652;50.280;19.026;2023-05-22T06:59:48;98454.66;;;19.91;43.63
40920;BME280;26652;50.280;19.026;2023-05-22T07:01:49;98448.94;;;19.89;43.45
40920;BME280;26652;50.280;19.026;2023-05-22T07:03:49;98453.03;;;20.24;45.74
40920;BME280;26652;50.280;19.026;2023-05-22T07:05:50;98438.88;;;20.48;43.85
40920;BME280;26652;50.280;19.026;2023-05-22T07:07:51;98442.19;;;20.44;42.99
40920;BME280;26652;50.280;19.026;2023-05-22T07:09:52;98436.94;;;20.61;43.59
40920;BME280;26652;50.280;19.026;2023-05-22T07:11:52;98450.66;;;20.88;42.79
40920;BME280;26652;50.280;19.026;2023-05-22T07:13:53;98455.44;;;21.23;42.70
40920;BME280;26652;50.280;19.026;2023-05-22T07:15:54;98458.38;;;21.32;42.17
40920;BME280;26652;50.280;19.026;2023-05-22T07:17:55;98442.66;;;21.75;41.48
40920;BME280;26652;50.280;19.026;2023-05-22T07:19:56;98447.53;;;22.14;40.36
40920;BME280;26652;50.280;19.026;2023-05-22T07:21:56;98462.16;;;22.35;40.26
40920;BME280;26652;50.280;19.026;2023-05-22T07:23:59;98453.81;;;22.86;39.43
40920;BME280;26652;50.280;19.026;2023-05-22T07:26:02;98472.81;;;23.32;40.68
40920;BME280;26652;50.280;19.026;2023-05-22T07:28:03;98455.41;;;23.37;38.17
40920;BME280;26652;50.280;19.026;2023-05-22T07:30:08;98452.03;;;23.11;38.83
40920;BME280;26652;50.280;19.026;2023-05-22T07:32:09;98455.16;;;23.29;39.08
40920;BME280;26652;50.280;19.026;2023-05-22T07:34:10;98469.19;;;23.48;38.44
40920;BME280;26652;50.280;19.026;2023-05-22T07:36:10;98455.19;;;23.59;39.00
40920;BME280;26652;50.280;19.026;2023-05-22T07:38:11;98468.44;;;23.78;37.14
40920;BME280;26652;50.280;19.026;2023-05-22T07:40:12;98461.84;;;24.01;38.15
40920;BME280;26652;50.280;19.026;2023-05-22T07:42:13;98465.44;;;24.20;38.39
40920;BME280;26652;50.280;19.026;2023-05-22T07:44:14;98465.44;;;24.20;36.28
40920;BME280;26652;50.280;19.026;2023-05-22T07:46:15;98451.94;;;24.28;36.88
40920;BME280;26652;50.280;19.026;2023-05-22T07:48:15;98461.91;;;23.86;37.36
40920;BME280;26652;50.280;19.026;2023-05-22T07:50:16;98458.28;;;23.71;38.81
40920;BME280;26652;50.280;19.026;2023-05-22T07:52:17;98457.94;;;24.08;39.55
40920;BME280;26652;50.280;19.026;2023-05-22T07:54:18;98460.78;;;24.17;37.50
40920;BME280;26652;50.280;19.026;2023-05-22T07:56:19;98450.63;;;24.31;38.68
40920;BME280;26652;50.280;19.026;2023-05-22T07:58:19;98454.97;;;24.45;40.34
40920;BME280;26652;50.280;19.026;2023-05-22T08:00:20;98452.59;;;24.59;37.46
40920;BME280;26652;50.280;19.026;2023-05-22T08:02:22;98462.19;;;23.84;34.50
40920;BME280;26652;50.280;19.026;2023-05-22T08:04:23;98457.41;;;24.17;34.48
40920;BME280;26652;50.280;19.026;2023-05-22T08:06:24;98459.22;;;24.16;34.45
40920;BME280;26652;50.280;19.026;2023-05-22T08:08:24;98458.19;;;24.27;34.17
40920;BME280;26652;50.280;19.026;2023-05-22T08:10:25;98448.16;;;24.60;34.42
40920;BME280;26652;50.280;19.026;2023-05-22T08:12:26;98454.13;;;25.09;34.40
40920;BME280;26652;50.280;19.026;2023-05-22T08:14:27;98459.19;;;25.30;32.43
40920;BME280;26652;50.280;19.026;2023-05-22T08:16:27;98446.50;;;25.18;32.09
40920;BME280;26652;50.280;19.026;2023-05-22T08:18:30;98460.16;;;25.39;32.12
40920;BME280;26652;50.280;19.026;2023-05-22T08:20:31;98466.66;;;25.41;31.97
40920;BME280;26652;50.280;19.026;2023-05-22T08:22:32;98452.34;;;25.00;31.93
40920;BME280;26652;50.280;19.026;2023-05-22T08:24:33;98451.28;;;24.62;32.93
40920;BME280;26652;50.280;19.026;2023-05-22T08:26:34;98460.53;;;24.83;35.10
40920;BME280;26652;50.280;19.026;2023-05-22T08:28:35;98446.34;;;25.04;32.96
40920;BME280;26652;50.280;19.026;2023-05-22T08:30:36;98454.31;;;25.52;34.41
40920;BME280;26652;50.280;19.026;2023-05-22T08:32:37;98449.28;;;25.66;33.31
40920;BME280;26652;50.280;19.026;2023-05-22T08:34:38;98445.69;;;25.23;31.56
40920;BME280;26652;50.280;19.026;2023-05-22T08:36:40;98441.06;;;24.70;32.69
40920;BME280;26652;50.280;19.026;2023-05-22T08:38:41;98438.88;;;25.27;33.36
40920;BME280;26652;50.280;19.026;2023-05-22T08:40:46;98444.38;;;25.25;32.11
40920;BME280;26652;50.280;19.026;2023-05-22T08:42:48;98443.66;;;25.49;32.47
40920;BME280;26652;50.280;19.026;2023-05-22T08:44:53;98440.03;;;25.45;32.41
40920;BME280;26652;50.280;19.026;2023-05-22T08:46:56;98436.25;;;25.32;32.31
40920;BME280;26652;50.280;19.026;2023-05-22T08:48:59;98443.97;;;25.76;35.70
40920;BME280;26652;50.280;19.026;2023-05-22T08:51:02;98432.88;;;25.89;30.31
40920;BME280;26652;50.280;19.026;2023-05-22T08:53:05;98440.53;;;25.81;30.05
40920;BME280;26652;50.280;19.026;2023-05-22T08:55:08;98438.53;;;25.96;31.48
40920;BME280;26652;50.280;19.026;2023-05-22T08:57:09;98441.25;;;25.23;30.70
40920;BME280;26652;50.280;19.026;2023-05-22T08:59:10;98448.16;;;25.04;32.52
40920;BME280;26652;50.280;19.026;2023-05-22T09:01:12;98428.22;;;25.23;32.65
40920;BME280;26652;50.280;19.026;2023-05-22T09:03:14;98430.16;;;25.07;32.36
40920;BME280;26652;50.280;19.026;2023-05-22T09:05:15;98443.69;;;25.09;30.80
40920;BME280;26652;50.280;19.026;2023-05-22T09:07:17;98428.75;;;24.86;30.66
40920;BME280;26652;50.280;19.026;2023-05-22T09:09:17;98404.94;;;24.59;32.24
40920;BME280;26652;50.280;19.026;2023-05-22T09:11:19;98421.03;;;24.71;34.25
40920;BME280;26652;50.280;19.026;2023-05-22T09:13:25;98419.75;;;24.63;32.38
40920;BME280;26652;50.280;19.026;2023-05-22T09:15:31;98427.03;;;24.66;33.32
40920;BME280;26652;50.280;19.026;2023-05-22T09:17:32;98426.38;;;24.40;32.88
40920;BME280;26652;50.280;19.026;2023-05-22T09:19:33;98435.84;;;24.01;34.01
40920;BME280;26652;50.280;19.026;2023-05-22T09:21:35;98419.00;;;23.88;33.19
40920;BME280;26652;50.280;19.026;2023-05-22T09:23:36;98422.56;;;24.12;33.27
40920;BME280;26652;50.280;19.026;2023-05-22T09:25:37;98416.00;;;24.35;33.88
40920;BME280;26652;50.280;19.026;2023-05-22T09:27:38;98424.06;;;24.34;31.40
40920;BME280;26652;50.280;19.026;2023-05-22T09:29:52;98433.19;;;24.26;32.47
40920;BME280;26652;50.280;19.026;2023-05-22T09:31:53;98422.00;;;24.26;33.96
40920;BME280;26652;50.280;19.026;2023-05-22T09:33:54;98425.63;;;24.35;32.21
40920;BME280;26652;50.280;19.026;2023-05-22T09:35:56;98421.78;;;24.07;33.81
40920;BME280;26652;50.280;19.026;2023-05-22T09:37:57;98413.41;;;24.20;34.08
40920;BME280;26652;50.280;19.026;2023-05-22T09:40:03;98410.19;;;23.74;36.55
40920;BME280;26652;50.280;19.026;2023-05-22T09:42:07;98408.63;;;23.78;33.57
40920;BME280;26652;50.280;19.026;2023-05-22T09:44:12;98431.16;;;24.03;33.19
40920;BME280;26652;50.280;19.026;2023-05-22T09:46:14;98413.38;;;24.35;34.91
40920;BME280;26652;50.280;19.026;2023-05-22T09:48:16;98416.97;;;24.50;33.44
40920;BME280;26652;50.280;19.026;2023-05-22T09:50:17;98423.78;;;24.35;32.02
40920;BME280;26652;50.280;19.026;2023-05-22T09:52:19;98412.75;;;24.59;32.25
40920;BME280;26652;50.280;19.026;2023-05-22T09:54:21;98409.25;;;24.78;33.63
40920;BME280;26652;50.280;19.026;2023-05-22T09:56:26;98409.78;;;24.81;31.92
40920;BME280;26652;50.280;19.026;2023-05-22T09:58:29;98407.22;;;25.09;32.36
40920;BME280;26652;50.280;19.026;2023-05-22T10:00:32;98414.16;;;25.53;32.05
40920;BME280;26652;50.280;19.026;2023-05-22T10:02:34;98412.66;;;25.47;32.17
40920;BME280;26652;50.280;19.026;2023-05-22T10:04:37;98411.84;;;25.18;32.29
40920;BME280;26652;50.280;19.026;2023-05-22T10:06:40;98408.16;;;25.24;33.04
40920;BME280;26652;50.280;19.026;2023-05-22T10:08:43;98412.38;;;25.49;33.26
40920;BME280;26652;50.280;19.026;2023-05-22T10:10:49;98396.38;;;24.97;33.00
40920;BME280;26652;50.280;19.026;2023-05-22T10:12:56;98400.22;;;25.05;34.78
40920;BME280;26652;50.280;19.026;2023-05-22T10:14:57;98405.66;;;25.08;33.93
40920;BME280;26652;50.280;19.026;2023-05-22T10:17:00;98407.22;;;25.09;34.34
40920;BME280;26652;50.280;19.026;2023-05-22T10:19:04;98407.25;;;25.38;35.11
40920;BME280;26652;50.280;19.026;2023-05-22T10:21:06;98402.22;;;25.18;34.36
40920;BME280;26652;50.280;19.026;2023-05-22T10:23:08;98404.91;;;25.37;35.58
40920;BME280;26652;50.280;19.026;2023-05-22T10:25:09;98416.13;;;25.03;33.28
40920;BME280;26652;50.280;19.026;2023-05-22T10:27:10;98395.88;;;24.95;34.41
40920;BME280;26652;50.280;19.026;2023-05-22T10:29:16;98393.88;;;24.82;34.79
40920;BME280;26652;50.280;19.026;2023-05-22T10:33:47;98380.88;;;24.23;34.72
40920;BME280;26652;50.280;19.026;2023-05-22T10:35:56;98394.97;;;24.17;35.66
40920;BME280;26652;50.280;19.026;2023-05-22T10:40:28;98392.19;;;23.93;36.20
40920;BME280;26652;50.280;19.026;2023-05-22T10:42:31;98394.22;;;24.06;37.49
40920;BME280;26652;50.280;19.026;2023-05-22T10:44:32;98392.16;;;23.98;35.76
40920;BME280;26652;50.280;19.026;2023-05-22T10:46:33;98393.66;;;24.19;35.37
40920;BME280;26652;50.280;19.026;2023-05-22T10:48:38;98381.47;;;24.09;35.52
40920;BME280;26652;50.280;19.026;2023-05-22T10:50:41;98396.25;;;24.19;35.55
40920;BME280;26652;50.280;19.026;2023-05-22T10:53:22;98404.31;;;24.28;35.06
40920;BME280;26652;50.280;19.026;2023-05-22T10:55:23;98387.72;;;24.08;35.07